sensor_id;sensor_type;location;lat;lon;timestamp;P1;durP1;ratioP1;P2;durP2;ratioP2
22320;SDS011;11328;53.928;18.522;2024-01-15T00:00:35;12.20;;;3.65;;
22320;SDS011;11328;53.928;18.522;2024-01-15T00:03:02;6.80;;;3.58;;
22320;SDS011;11328;53.928;18.522;2024-01-15T00:05:29;7.45;;;3.70;;
22320;SDS011;11328;53.928;18.522;2024-01-15T00:07:56;10.95;;;4.30;;
22320;SDS011;11328;53.928;18.522;2024-01-15T00:10:23;9.30;;;3.90;;
22320;SDS011;11328;53.928;18.522;2024-01-15T00:12:50;9.13;;;3.75;;
22320;SDS011;11328;53.928;18.522;2024-01-15T00:15:17;10.20;;;3.80;;
22320;SDS011;11328;53.928;18.522;2024-01-15T00:17:45;10.52;;;3.60;;
22320;SDS011;11328;53.928;18.522;2024-01-15T00:20:12;8.27;;;3.72;;
22320;SDS011;11328;53.928;18.522;2024-01-15T00:22:39;7.72;;;3.72;;
22320;SDS011;11328;53.928;18.522;2024-01-15T00:25:06;10.55;;;3.85;;
22320;SDS011;11328;53.928;18.522;2024-01-15T00:27:34;11.65;;;4.63;;
22320;SDS011;11328;53.928;18.522;2024-01-15T00:30:01;8.32;;;3.53;;
22320;SDS011;11328;53.928;18.522;2024-01-15T00:32:29;6.00;;;3.20;;
22320;SDS011;11328;53.928;18.522;2024-01-15T00:34:56;7.60;;;3.22;;
22320;SDS011;11328;53.928;18.522;2024-01-15T00:37:23;5.88;;;2.80;;
22320;SDS011;11328;53.928;18.522;2024-01-15T00:39:50;6.45;;;2.83;;
22320;SDS011;11328;53.928;18.522;2024-01-15T00:42:17;8.02;;;3.08;;
22320;SDS011;11328;53.928;18.522;2024-01-15T00:44:44;7.90;;;2.88;;
22320;SDS011;11328;53.928;18.522;2024-01-15T00:47:11;7.90;;;2.92;;
22320;SDS011;11328;53.928;18.522;2024-01-15T00:49:38;5.00;;;2.75;;
22320;SDS011;11328;53.928;18.522;2024-01-15T00:52:06;6.13;;;3.00;;
22320;SDS011;11328;53.928;18.522;2024-01-15T00:54:33;5.88;;;2.95;;
22320;SDS011;11328;53.928;18.522;2024-01-15T00:57:00;6.40;;;3.05;;
22320;SDS011;11328;53.928;18.522;2024-01-15T00:59:27;5.68;;;2.78;;
22320;SDS011;11328;53.928;18.522;2024-01-15T01:01:54;5.93;;;3.15;;
22320;SDS011;11328;53.928;18.522;2024-01-15T01:04:21;9.10;;;3.15;;
22320;SDS011;11328;53.928;18.522;2024-01-15T01:06:48;7.45;;;3.05;;
22320;SDS011;11328;53.928;18.522;2024-01-15T01:09:15;7.10;;;3.35;;
22320;SDS011;11328;53.928;18.522;2024-01-15T01:11:42;7.53;;;3.58;;
22320;SDS011;11328;53.928;18.522;2024-01-15T01:14:09;7.68;;;3.63;;
22320;SDS011;11328;53.928;18.522;2024-01-15T01:16:36;7.47;;;3.58;;
22320;SDS011;11328;53.928;18.522;2024-01-15T01:19:05;8.15;;;3.50;;
22320;SDS011;11328;53.928;18.522;2024-01-15T01:21:34;7.82;;;3.63;;
22320;SDS011;11328;53.928;18.522;2024-01-15T01:24:01;7.28;;;3.90;;
22320;SDS011;11328;53.928;18.522;2024-01-15T01:26:28;8.10;;;3.90;;
22320;SDS011;11328;53.928;18.522;2024-01-15T01:28:55;6.60;;;3.53;;
22320;SDS011;11328;53.928;18.522;2024-01-15T01:31:22;7.43;;;3.90;;
22320;SDS011;11328;53.928;18.522;2024-01-15T01:33:50;8.77;;;3.78;;
22320;SDS011;11328;53.928;18.522;2024-01-15T01:36:17;7.68;;;3.55;;
22320;SDS011;11328;53.928;18.522;2024-01-15T01:38:45;7.57;;;3.95;;
22320;SDS011;11328;53.928;18.522;2024-01-15T01:41:12;7.15;;;3.80;;
22320;SDS011;11328;53.928;18.522;2024-01-15T01:43:39;8.20;;;3.88;;
22320;SDS011;11328;53.928;18.522;2024-01-15T01:46:06;9.25;;;4.18;;
22320;SDS011;11328;53.928;18.522;2024-01-15T01:48:34;8.55;;;4.05;;
22320;SDS011;11328;53.928;18.522;2024-01-15T01:51:02;7.72;;;3.80;;
22320;SDS011;11328;53.928;18.522;2024-01-15T01:53:32;8.43;;;3.67;;
22320;SDS011;11328;53.928;18.522;2024-01-15T01:56:02;8.45;;;3.95;;
22320;SDS011;11328;53.928;18.522;2024-01-15T01:58:30;7.32;;;3.90;;
22320;SDS011;11328;53.928;18.522;2024-01-15T02:00:59;7.07;;;3.75;;
22320;SDS011;11328;53.928;18.522;2024-01-15T02:03:27;8.90;;;3.85;;
22320;SDS011;11328;53.928;18.522;2024-01-15T02:05:56;8.43;;;4.22;;
22320;SDS011;11328;53.928;18.522;2024-01-15T02:08:26;7.07;;;4.03;;
22320;SDS011;11328;53.928;18.522;2024-01-15T02:10:53;8.85;;;4.25;;
22320;SDS011;11328;53.928;18.522;2024-01-15T02:13:20;7.38;;;3.97;;
22320;SDS011;11328;53.928;18.522;2024-01-15T02:15:47;9.15;;;4.80;;
22320;SDS011;11328;53.928;18.522;2024-01-15T02:18:14;9.68;;;4.40;;
22320;SDS011;11328;53.928;18.522;2024-01-15T02:20:42;8.30;;;4.45;;
22320;SDS011;11328;53.928;18.522;2024-01-15T02:23:11;8.73;;;4.60;;
22320;SDS011;11328;53.928;18.522;2024-01-15T02:25:41;9.85;;;4.88;;
22320;SDS011;11328;53.928;18.522;2024-01-15T02:28:13;8.25;;;4.72;;
22320;SDS011;11328;53.928;18.522;2024-01-15T02:30:43;9.15;;;5.13;;
22320;SDS011;11328;53.928;18.522;2024-01-15T02:33:11;9.32;;;5.22;;
22320;SDS011;11328;53.928;18.522;2024-01-15T02:35:39;11.23;;;4.85;;
22320;SDS011;11328;53.928;18.522;2024-01-15T02:38:07;9.20;;;5.07;;
22320;SDS011;11328;53.928;18.522;2024-01-15T02:40:34;10.88;;;5.35;;
22320;SDS011;11328;53.928;18.522;2024-01-15T02:43:02;7.78;;;4.80;;
22320;SDS011;11328;53.928;18.522;2024-01-15T02:45:29;8.93;;;4.88;;
22320;SDS011;11328;53.928;18.522;2024-01-15T02:47:57;9.57;;;5.15;;
22320;SDS011;11328;53.928;18.522;2024-01-15T02:50:24;8.80;;;4.93;;
22320;SDS011;11328;53.928;18.522;2024-01-15T02:52:51;9.27;;;5.18;;
22320;SDS011;11328;53.928;18.522;2024-01-15T02:55:18;8.85;;;5.30;;
22320;SDS011;11328;53.928;18.522;2024-01-15T02:57:45;9.57;;;5.07;;
22320;SDS011;11328;53.928;18.522;2024-01-15T03:00:13;9.52;;;5.30;;
22320;SDS011;11328;53.928;18.522;2024-01-15T03:02:40;9.63;;;5.10;;
22320;SDS011;11328;53.928;18.522;2024-01-15T03:07:40;10.27;;;4.70;;
22320;SDS011;11328;53.928;18.522;2024-01-15T03:10:08;9.75;;;5.10;;
22320;SDS011;11328;53.928;18.522;2024-01-15T03:12:35;10.10;;;5.15;;
22320;SDS011;11328;53.928;18.522;2024-01-15T03:15:02;9.90;;;5.40;;
22320;SDS011;11328;53.928;18.522;2024-01-15T03:17:30;9.15;;;5.30;;
22320;SDS011;11328;53.928;18.522;2024-01-15T03:19:58;9.10;;;4.93;;
22320;SDS011;11328;53.928;18.522;2024-01-15T03:22:25;10.50;;;5.18;;
22320;SDS011;11328;53.928;18.522;2024-01-15T03:24:52;8.93;;;5.35;;
22320;SDS011;11328;53.928;18.522;2024-01-15T03:27:20;9.40;;;5.38;;
22320;SDS011;11328;53.928;18.522;2024-01-15T03:29:47;9.00;;;5.32;;
22320;SDS011;11328;53.928;18.522;2024-01-15T03:32:14;11.32;;;5.10;;
22320;SDS011;11328;53.928;18.522;2024-01-15T03:34:42;9.15;;;5.32;;
22320;SDS011;11328;53.928;18.522;2024-01-15T03:37:09;9.93;;;5.65;;
22320;SDS011;11328;53.928;18.522;2024-01-15T03:39:36;9.88;;;5.88;;
22320;SDS011;11328;53.928;18.522;2024-01-15T03:42:04;10.88;;;5.55;;
22320;SDS011;11328;53.928;18.522;2024-01-15T03:44:31;9.05;;;5.25;;
22320;SDS011;11328;53.928;18.522;2024-01-15T03:46:58;9.40;;;5.30;;
22320;SDS011;11328;53.928;18.522;2024-01-15T03:49:25;10.48;;;5.80;;
22320;SDS011;11328;53.928;18.522;2024-01-15T03:51:52;9.77;;;6.03;;
22320;SDS011;11328;53.928;18.522;2024-01-15T03:54:19;11.18;;;6.13;;
22320;SDS011;11328;53.928;18.522;2024-01-15T03:56:46;10.80;;;6.10;;
22320;SDS011;11328;53.928;18.522;2024-01-15T03:59:13;13.00;;;5.47;;
22320;SDS011;11328;53.928;18.522;2024-01-15T04:01:41;10.32;;;5.47;;
22320;SDS011;11328;53.928;18.522;2024-01-15T04:04:15;10.38;;;5.80;;
22320;SDS011;11328;53.928;18.522;2024-01-15T04:06:43;9.30;;;5.40;;
22320;SDS011;11328;53.928;18.522;2024-01-15T04:09:11;9.30;;;5.40;;
22320;SDS011;11328;53.928;18.522;2024-01-15T04:11:39;9.63;;;5.78;;
22320;SDS011;11328;53.928;18.522;2024-01-15T04:14:07;10.57;;;5.75;;
22320;SDS011;11328;53.928;18.522;2024-01-15T04:16:34;9.73;;;5.78;;
22320;SDS011;11328;53.928;18.522;2024-01-15T04:19:01;10.90;;;5.95;;
22320;SDS011;11328;53.928;18.522;2024-01-15T04:21:28;9.52;;;5.32;;
22320;SDS011;11328;53.928;18.522;2024-01-15T04:23:55;10.55;;;6.03;;
22320;SDS011;11328;53.928;18.522;2024-01-15T04:26:22;10.82;;;5.93;;
22320;SDS011;11328;53.928;18.522;2024-01-15T04:28:49;9.50;;;5.90;;
22320;SDS011;11328;53.928;18.522;2024-01-15T04:31:25;11.15;;;6.15;;
22320;SDS011;11328;53.928;18.522;2024-01-15T04:33:56;9.13;;;5.43;;
22320;SDS011;11328;53.928;18.522;2024-01-15T04:36:23;10.13;;;5.70;;
22320;SDS011;11328;53.928;18.522;2024-01-15T04:38:50;10.73;;;5.97;;
22320;SDS011;11328;53.928;18.522;2024-01-15T04:41:17;10.60;;;6.00;;
22320;SDS011;11328;53.928;18.522;2024-01-15T04:43:44;9.32;;;5.40;;
22320;SDS011;11328;53.928;18.522;2024-01-15T04:46:11;9.82;;;5.78;;
22320;SDS011;11328;53.928;18.522;2024-01-15T04:48:38;10.77;;;5.82;;
22320;SDS011;11328;53.928;18.522;2024-01-15T04:51:06;9.65;;;5.72;;
22320;SDS011;11328;53.928;18.522;2024-01-15T04:53:35;10.38;;;6.30;;
22320;SDS011;11328;53.928;18.522;2024-01-15T04:56:02;9.45;;;5.28;;
22320;SDS011;11328;53.928;18.522;2024-01-15T04:58:30;9.45;;;5.45;;
22320;SDS011;11328;53.928;18.522;2024-01-15T05:00:57;10.30;;;5.90;;
22320;SDS011;11328;53.928;18.522;2024-01-15T05:03:24;9.55;;;5.45;;
22320;SDS011;11328;53.928;18.522;2024-01-15T05:05:51;9.27;;;5.38;;
22320;SDS011;11328;53.928;18.522;2024-01-15T05:08:19;9.02;;;5.18;;
22320;SDS011;11328;53.928;18.522;2024-01-15T05:10:46;8.63;;;5.03;;
22320;SDS011;11328;53.928;18.522;2024-01-15T05:13:14;9.55;;;5.25;;
22320;SDS011;11328;53.928;18.522;2024-01-15T05:15:41;9.73;;;5.22;;
22320;SDS011;11328;53.928;18.522;2024-01-15T05:18:08;9.18;;;4.90;;
22320;SDS011;11328;53.928;18.522;2024-01-15T05:20:35;9.80;;;5.28;;
22320;SDS011;11328;53.928;18.522;2024-01-15T05:23:02;8.85;;;4.75;;
22320;SDS011;11328;53.928;18.522;2024-01-15T05:25:30;9.65;;;4.40;;
22320;SDS011;11328;53.928;18.522;2024-01-15T05:27:57;9.38;;;4.00;;
22320;SDS011;11328;53.928;18.522;2024-01-15T05:30:24;9.43;;;4.07;;
22320;SDS011;11328;53.928;18.522;2024-01-15T05:32:51;8.00;;;3.70;;
22320;SDS011;11328;53.928;18.522;2024-01-15T05:35:18;8.35;;;3.85;;
22320;SDS011;11328;53.928;18.522;2024-01-15T05:37:45;7.95;;;3.65;;
22320;SDS011;11328;53.928;18.522;2024-01-15T05:40:12;10.68;;;3.92;;
22320;SDS011;11328;53.928;18.522;2024-01-15T05:42:41;8.98;;;3.70;;
22320;SDS011;11328;53.928;18.522;2024-01-15T05:45:08;9.75;;;3.30;;
22320;SDS011;11328;53.928;18.522;2024-01-15T05:47:36;12.52;;;3.78;;
22320;SDS011;11328;53.928;18.522;2024-01-15T05:50:03;9.27;;;3.40;;
22320;SDS011;11328;53.928;18.522;2024-01-15T05:52:31;9.07;;;3.38;;
22320;SDS011;11328;53.928;18.522;2024-01-15T05:54:58;11.52;;;3.40;;
22320;SDS011;11328;53.928;18.522;2024-01-15T05:57:25;12.88;;;3.67;;
22320;SDS011;11328;53.928;18.522;2024-01-15T05:59:52;8.55;;;3.10;;
22320;SDS011;11328;53.928;18.522;2024-01-15T06:02:19;8.63;;;3.00;;
22320;SDS011;11328;53.928;18.522;2024-01-15T06:04:47;12.85;;;3.20;;
22320;SDS011;11328;53.928;18.522;2024-01-15T06:07:14;12.23;;;3.55;;
22320;SDS011;11328;53.928;18.522;2024-01-15T06:09:41;7.65;;;2.85;;
22320;SDS011;11328;53.928;18.522;2024-01-15T06:12:08;9.85;;;2.47;;
22320;SDS011;11328;53.928;18.522;2024-01-15T06:14:35;6.50;;;2.50;;
22320;SDS011;11328;53.928;18.522;2024-01-15T06:17:02;9.10;;;2.40;;
22320;SDS011;11328;53.928;18.522;2024-01-15T06:19:30;11.75;;;2.60;;
22320;SDS011;11328;53.928;18.522;2024-01-15T06:21:57;15.70;;;3.08;;
22320;SDS011;11328;53.928;18.522;2024-01-15T06:24:24;14.05;;;2.70;;
22320;SDS011;11328;53.928;18.522;2024-01-15T06:26:51;9.18;;;2.75;;
22320;SDS011;11328;53.928;18.522;2024-01-15T06:29:18;11.50;;;2.97;;
22320;SDS011;11328;53.928;18.522;2024-01-15T06:31:46;9.45;;;2.63;;
22320;SDS011;11328;53.928;18.522;2024-01-15T06:34:14;8.35;;;2.30;;
22320;SDS011;11328;53.928;18.522;2024-01-15T06:36:42;10.23;;;2.80;;
22320;SDS011;11328;53.928;18.522;2024-01-15T06:39:09;9.65;;;2.70;;
22320;SDS011;11328;53.928;18.522;2024-01-15T06:41:37;10.95;;;2.90;;
22320;SDS011;11328;53.928;18.522;2024-01-15T06:44:10;8.70;;;2.80;;
22320;SDS011;11328;53.928;18.522;2024-01-15T06:46:44;10.27;;;2.92;;
22320;SDS011;11328;53.928;18.522;2024-01-15T06:49:12;12.07;;;3.28;;
22320;SDS011;11328;53.928;18.522;2024-01-15T06:51:39;8.02;;;2.67;;
22320;SDS011;11328;53.928;18.522;2024-01-15T06:54:06;10.70;;;2.85;;
22320;SDS011;11328;53.928;18.522;2024-01-15T06:56:34;10.70;;;2.83;;
22320;SDS011;11328;53.928;18.522;2024-01-15T06:59:01;15.10;;;2.97;;
22320;SDS011;11328;53.928;18.522;2024-01-15T07:01:29;10.05;;;3.00;;
22320;SDS011;11328;53.928;18.522;2024-01-15T07:03:56;10.23;;;2.90;;
22320;SDS011;11328;53.928;18.522;2024-01-15T07:06:23;16.52;;;4.80;;
22320;SDS011;11328;53.928;18.522;2024-01-15T07:08:50;11.45;;;2.85;;
22320;SDS011;11328;53.928;18.522;2024-01-15T07:11:17;12.52;;;3.30;;
22320;SDS011;11328;53.928;18.522;2024-01-15T07:13:44;11.98;;;3.00;;
22320;SDS011;11328;53.928;18.522;2024-01-15T07:16:11;12.00;;;3.33;;
22320;SDS011;11328;53.928;18.522;2024-01-15T07:18:41;10.45;;;2.97;;
22320;SDS011;11328;53.928;18.522;2024-01-15T07:21:08;8.73;;;3.65;;
22320;SDS011;11328;53.928;18.522;2024-01-15T07:23:36;9.88;;;3.10;;
22320;SDS011;11328;53.928;18.522;2024-01-15T07:26:03;9.32;;;2.95;;
22320;SDS011;11328;53.928;18.522;2024-01-15T07:28:31;10.85;;;3.08;;
22320;SDS011;11328;53.928;18.522;2024-01-15T07:30:58;10.80;;;3.30;;
22320;SDS011;11328;53.928;18.522;2024-01-15T07:33:27;9.15;;;3.20;;
22320;SDS011;11328;53.928;18.522;2024-01-15T07:35:55;12.80;;;4.75;;
22320;SDS011;11328;53.928;18.522;2024-01-15T07:38:23;9.70;;;4.00;;
22320;SDS011;11328;53.928;18.522;2024-01-15T07:40:50;11.65;;;4.00;;
22320;SDS011;11328;53.928;18.522;2024-01-15T07:43:17;12.38;;;3.22;;
22320;SDS011;11328;53.928;18.522;2024-01-15T07:45:44;8.75;;;3.22;;
22320;SDS011;11328;53.928;18.522;2024-01-15T07:48:12;9.43;;;3.40;;
22320;SDS011;11328;53.928;18.522;2024-01-15T07:50:39;7.57;;;3.40;;
22320;SDS011;11328;53.928;18.522;2024-01-15T07:53:06;11.20;;;3.60;;
22320;SDS011;11328;53.928;18.522;2024-01-15T07:55:33;10.98;;;4.13;;
22320;SDS011;11328;53.928;18.522;2024-01-15T07:58:00;8.63;;;3.70;;
22320;SDS011;11328;53.928;18.522;2024-01-15T08:00:41;10.52;;;3.63;;
22320;SDS011;11328;53.928;18.522;2024-01-15T08:03:08;12.02;;;3.47;;
22320;SDS011;11328;53.928;18.522;2024-01-15T08:05:35;12.18;;;3.85;;
22320;SDS011;11328;53.928;18.522;2024-01-15T08:08:03;9.00;;;3.60;;
22320;SDS011;11328;53.928;18.522;2024-01-15T08:10:30;9.98;;;3.08;;
22320;SDS011;11328;53.928;18.522;2024-01-15T08:12:57;9.25;;;3.00;;
22320;SDS011;11328;53.928;18.522;2024-01-15T08:15:25;8.23;;;3.08;;
22320;SDS011;11328;53.928;18.522;2024-01-15T08:17:56;9.63;;;3.50;;
22320;SDS011;11328;53.928;18.522;2024-01-15T08:20:25;8.38;;;3.15;;
22320;SDS011;11328;53.928;18.522;2024-01-15T08:22:52;10.45;;;3.03;;
22320;SDS011;11328;53.928;18.522;2024-01-15T08:25:19;8.15;;;2.80;;
22320;SDS011;11328;53.928;18.522;2024-01-15T08:27:47;10.23;;;2.80;;
22320;SDS011;11328;53.928;18.522;2024-01-15T08:30:14;9.07;;;2.75;;
22320;SDS011;11328;53.928;18.522;2024-01-15T08:32:41;7.28;;;3.20;;
22320;SDS011;11328;53.928;18.522;2024-01-15T08:35:09;6.72;;;2.85;;
22320;SDS011;11328;53.928;18.522;2024-01-15T08:37:38;7.75;;;2.90;;
22320;SDS011;11328;53.928;18.522;2024-01-15T08:40:05;9.82;;;3.20;;
22320;SDS011;11328;53.928;18.522;2024-01-15T08:42:33;8.70;;;3.13;;
22320;SDS011;11328;53.928;18.522;2024-01-15T08:45:00;9.00;;;2.80;;
22320;SDS011;11328;53.928;18.522;2024-01-15T08:47:28;10.23;;;2.90;;
22320;SDS011;11328;53.928;18.522;2024-01-15T08:49:55;8.27;;;3.35;;
22320;SDS011;11328;53.928;18.522;2024-01-15T08:52:22;8.15;;;2.95;;
22320;SDS011;11328;53.928;18.522;2024-01-15T08:54:49;8.43;;;2.88;;
22320;SDS011;11328;53.928;18.522;2024-01-15T08:57:16;7.03;;;2.55;;
22320;SDS011;11328;53.928;18.522;2024-01-15T08:59:44;6.72;;;3.03;;
22320;SDS011;11328;53.928;18.522;2024-01-15T09:02:11;8.85;;;2.72;;
22320;SDS011;11328;53.928;18.522;2024-01-15T09:04:38;8.55;;;2.72;;
22320;SDS011;11328;53.928;18.522;2024-01-15T09:07:05;8.10;;;2.65;;
22320;SDS011;11328;53.928;18.522;2024-01-15T09:09:33;10.80;;;2.88;;
22320;SDS011;11328;53.928;18.522;2024-01-15T09:12:01;8.90;;;3.10;;
22320;SDS011;11328;53.928;18.522;2024-01-15T09:14:28;9.27;;;3.38;;
22320;SDS011;11328;53.928;18.522;2024-01-15T09:17:03;8.27;;;3.20;;
22320;SDS011;11328;53.928;18.522;2024-01-15T09:19:31;8.57;;;3.05;;
22320;SDS011;11328;53.928;18.522;2024-01-15T09:21:59;6.25;;;2.38;;
22320;SDS011;11328;53.928;18.522;2024-01-15T09:24:26;7.57;;;2.50;;
22320;SDS011;11328;53.928;18.522;2024-01-15T09:26:54;6.47;;;2.60;;
22320;SDS011;11328;53.928;18.522;2024-01-15T09:29:22;9.20;;;3.20;;
22320;SDS011;11328;53.928;18.522;2024-01-15T09:31:50;7.20;;;2.90;;
22320;SDS011;11328;53.928;18.522;2024-01-15T09:34:18;7.25;;;2.47;;
22320;SDS011;11328;53.928;18.522;2024-01-15T09:36:46;10.95;;;3.17;;
22320;SDS011;11328;53.928;18.522;2024-01-15T09:39:14;8.57;;;2.85;;
22320;SDS011;11328;53.928;18.522;2024-01-15T09:41:42;8.05;;;2.30;;
22320;SDS011;11328;53.928;18.522;2024-01-15T09:44:10;9.70;;;2.15;;
22320;SDS011;11328;53.928;18.522;2024-01-15T09:46:38;10.23;;;2.28;;
22320;SDS011;11328;53.928;18.522;2024-01-15T09:49:07;12.85;;;2.40;;
22320;SDS011;11328;53.928;18.522;2024-01-15T09:51:35;8.60;;;2.42;;
22320;SDS011;11328;53.928;18.522;2024-01-15T09:54:03;8.77;;;2.72;;
22320;SDS011;11328;53.928;18.522;2024-01-15T09:56:31;9.05;;;2.30;;
22320;SDS011;11328;53.928;18.522;2024-01-15T09:58:58;8.63;;;2.83;;
22320;SDS011;11328;53.928;18.522;2024-01-15T10:01:26;13.43;;;2.90;;
22320;SDS011;11328;53.928;18.522;2024-01-15T10:03:54;9.57;;;2.67;;
22320;SDS011;11328;53.928;18.522;2024-01-15T10:06:22;8.70;;;2.45;;
22320;SDS011;11328;53.928;18.522;2024-01-15T10:08:50;13.35;;;2.75;;
22320;SDS011;11328;53.928;18.522;2024-01-15T10:11:18;11.73;;;3.13;;
22320;SDS011;11328;53.928;18.522;2024-01-15T10:13:45;10.32;;;2.70;;
22320;SDS011;11328;53.928;18.522;2024-01-15T10:16:16;10.40;;;3.00;;
22320;SDS011;11328;53.928;18.522;2024-01-15T10:18:43;9.18;;;2.92;;
22320;SDS011;11328;53.928;18.522;2024-01-15T10:21:10;10.30;;;2.78;;
22320;SDS011;11328;53.928;18.522;2024-01-15T10:23:37;13.23;;;4.47;;
22320;SDS011;11328;53.928;18.522;2024-01-15T10:26:05;12.63;;;3.20;;
22320;SDS011;11328;53.928;18.522;2024-01-15T10:28:32;8.85;;;2.50;;
22320;SDS011;11328;53.928;18.522;2024-01-15T10:30:59;8.73;;;2.50;;
22320;SDS011;11328;53.928;18.522;2024-01-15T10:33:28;9.43;;;3.00;;
22320;SDS011;11328;53.928;18.522;2024-01-15T10:35:56;6.50;;;2.25;;
22320;SDS011;11328;53.928;18.522;2024-01-15T10:38:25;10.55;;;3.47;;
22320;SDS011;11328;53.928;18.522;2024-01-15T10:40:53;11.27;;;3.00;;
22320;SDS011;11328;53.928;18.522;2024-01-15T10:43:22;7.80;;;2.58;;
22320;SDS011;11328;53.928;18.522;2024-01-15T10:45:54;6.25;;;1.75;;
22320;SDS011;11328;53.928;18.522;2024-01-15T10:48:21;6.18;;;2.08;;
22320;SDS011;11328;53.928;18.522;2024-01-15T10:50:49;8.15;;;2.03;;
22320;SDS011;11328;53.928;18.522;2024-01-15T10:53:16;6.85;;;2.28;;
22320;SDS011;11328;53.928;18.522;2024-01-15T10:55:44;9.52;;;2.60;;
22320;SDS011;11328;53.928;18.522;2024-01-15T10:58:15;6.55;;;2.53;;
22320;SDS011;11328;53.928;18.522;2024-01-15T11:00:43;5.25;;;2.15;;
22320;SDS011;11328;53.928;18.522;2024-01-15T11:03:11;8.63;;;2.33;;
22320;SDS011;11328;53.928;18.522;2024-01-15T11:05:43;8.57;;;3.15;;
22320;SDS011;11328;53.928;18.522;2024-01-15T11:08:11;9.43;;;2.67;;
22320;SDS011;11328;53.928;18.522;2024-01-15T11:10:39;8.25;;;2.40;;
22320;SDS011;11328;53.928;18.522;2024-01-15T11:13:09;11.10;;;2.60;;
22320;SDS011;11328;53.928;18.522;2024-01-15T11:15:59;7.00;;;2.40;;
22320;SDS011;11328;53.928;18.522;2024-01-15T11:18:40;7.55;;;2.45;;
22320;SDS011;11328;53.928;18.522;2024-01-15T11:21:23;6.38;;;2.55;;
22320;SDS011;11328;53.928;18.522;2024-01-15T11:23:57;7.82;;;2.70;;
22320;SDS011;11328;53.928;18.522;2024-01-15T11:26:44;6.18;;;2.20;;
22320;SDS011;11328;53.928;18.522;2024-01-15T11:40:19;5.07;;;1.90;;
22320;SDS011;11328;53.928;18.522;2024-01-15T11:42:48;5.10;;;1.95;;
22320;SDS011;11328;53.928;18.522;2024-01-15T11:45:18;7.22;;;2.22;;
22320;SDS011;11328;53.928;18.522;2024-01-15T11:50:22;5.20;;;2.20;;
22320;SDS011;11328;53.928;18.522;2024-01-15T11:52:56;5.40;;;2.17;;
22320;SDS011;11328;53.928;18.522;2024-01-15T11:58:08;5.13;;;2.00;;
22320;SDS011;11328;53.928;18.522;2024-01-15T12:00:42;6.00;;;1.85;;
22320;SDS011;11328;53.928;18.522;2024-01-15T12:03:13;4.50;;;1.60;;
22320;SDS011;11328;53.928;18.522;2024-01-15T12:05:41;6.57;;;1.83;;
22320;SDS011;11328;53.928;18.522;2024-01-15T12:08:08;5.82;;;2.13;;
22320;SDS011;11328;53.928;18.522;2024-01-15T12:10:41;7.65;;;2.03;;
22320;SDS011;11328;53.928;18.522;2024-01-15T12:13:10;7.00;;;2.28;;
22320;SDS011;11328;53.928;18.522;2024-01-15T12:15:38;5.93;;;2.17;;
22320;SDS011;11328;53.928;18.522;2024-01-15T12:18:08;6.57;;;1.90;;
22320;SDS011;11328;53.928;18.522;2024-01-15T12:20:37;5.97;;;2.28;;
22320;SDS011;11328;53.928;18.522;2024-01-15T12:23:05;4.75;;;1.58;;
22320;SDS011;11328;53.928;18.522;2024-01-15T12:25:35;6.13;;;1.85;;
22320;SDS011;11328;53.928;18.522;2024-01-15T12:28:03;5.22;;;1.65;;
22320;SDS011;11328;53.928;18.522;2024-01-15T12:30:32;5.43;;;1.70;;
22320;SDS011;11328;53.928;18.522;2024-01-15T12:33:05;6.95;;;1.98;;
22320;SDS011;11328;53.928;18.522;2024-01-15T12:38:02;2.80;;;1.17;;
22320;SDS011;11328;53.928;18.522;2024-01-15T12:40:31;4.55;;;1.40;;
22320;SDS011;11328;53.928;18.522;2024-01-15T12:43:02;4.88;;;1.73;;
22320;SDS011;11328;53.928;18.522;2024-01-15T12:45:29;3.85;;;1.15;;
22320;SDS011;11328;53.928;18.522;2024-01-15T12:47:59;4.38;;;1.40;;
22320;SDS011;11328;53.928;18.522;2024-01-15T12:50:32;5.35;;;1.10;;
22320;SDS011;11328;53.928;18.522;2024-01-15T12:53:07;3.97;;;1.30;;
22320;SDS011;11328;53.928;18.522;2024-01-15T12:55:34;4.05;;;1.20;;
22320;SDS011;11328;53.928;18.522;2024-01-15T12:58:19;3.83;;;1.30;;
22320;SDS011;11328;53.928;18.522;2024-01-15T13:00:49;4.13;;;1.35;;
22320;SDS011;11328;53.928;18.522;2024-01-15T13:03:22;4.90;;;1.42;;
22320;SDS011;11328;53.928;18.522;2024-01-15T13:05:57;4.00;;;1.58;;
22320;SDS011;11328;53.928;18.522;2024-01-15T13:08:24;5.05;;;1.60;;
22320;SDS011;11328;53.928;18.522;2024-01-15T13:10:53;3.85;;;1.13;;
22320;SDS011;11328;53.928;18.522;2024-01-15T13:13:23;4.65;;;1.40;;
22320;SDS011;11328;53.928;18.522;2024-01-15T13:15:50;5.78;;;1.70;;
22320;SDS011;11328;53.928;18.522;2024-01-15T13:18:17;6.07;;;1.33;;
22320;SDS011;11328;53.928;18.522;2024-01-15T13:20:44;3.70;;;1.40;;
22320;SDS011;11328;53.928;18.522;2024-01-15T13:23:12;4.47;;;1.70;;
22320;SDS011;11328;53.928;18.522;2024-01-15T13:25:39;3.22;;;1.35;;
22320;SDS011;11328;53.928;18.522;2024-01-15T13:28:06;3.55;;;1.15;;
22320;SDS011;11328;53.928;18.522;2024-01-15T13:30:34;5.55;;;1.70;;
22320;SDS011;11328;53.928;18.522;2024-01-15T13:33:01;5.68;;;1.65;;
22320;SDS011;11328;53.928;18.522;2024-01-15T13:35:31;2.50;;;1.15;;
22320;SDS011;11328;53.928;18.522;2024-01-15T13:37:58;3.80;;;1.52;;
22320;SDS011;11328;53.928;18.522;2024-01-15T13:40:25;6.65;;;2.30;;
22320;SDS011;11328;53.928;18.522;2024-01-15T13:42:52;4.90;;;1.60;;
22320;SDS011;11328;53.928;18.522;2024-01-15T13:45:20;6.13;;;1.67;;
22320;SDS011;11328;53.928;18.522;2024-01-15T13:47:50;6.60;;;1.83;;
22320;SDS011;11328;53.928;18.522;2024-01-15T13:50:17;6.30;;;1.85;;
22320;SDS011;11328;53.928;18.522;2024-01-15T13:52:44;4.82;;;1.67;;
22320;SDS011;11328;53.928;18.522;2024-01-15T13:55:11;4.00;;;1.67;;
22320;SDS011;11328;53.928;18.522;2024-01-15T13:57:38;5.93;;;1.85;;
22320;SDS011;11328;53.928;18.522;2024-01-15T14:00:05;6.03;;;1.63;;
22320;SDS011;11328;53.928;18.522;2024-01-15T14:02:38;5.68;;;1.95;;
22320;SDS011;11328;53.928;18.522;2024-01-15T14:05:05;8.38;;;2.10;;
22320;SDS011;11328;53.928;18.522;2024-01-15T14:07:32;9.63;;;2.50;;
22320;SDS011;11328;53.928;18.522;2024-01-15T14:09:59;5.68;;;1.95;;
22320;SDS011;11328;53.928;18.522;2024-01-15T14:12:27;6.13;;;2.00;;
22320;SDS011;11328;53.928;18.522;2024-01-15T14:14:54;7.35;;;2.35;;
22320;SDS011;11328;53.928;18.522;2024-01-15T14:17:21;11.18;;;4.13;;
22320;SDS011;11328;53.928;18.522;2024-01-15T14:19:48;5.18;;;1.50;;
22320;SDS011;11328;53.928;18.522;2024-01-15T14:22:18;3.83;;;1.65;;
22320;SDS011;11328;53.928;18.522;2024-01-15T14:24:47;4.60;;;1.63;;
22320;SDS011;11328;53.928;18.522;2024-01-15T14:27:14;6.50;;;2.22;;
22320;SDS011;11328;53.928;18.522;2024-01-15T14:29:42;8.30;;;2.13;;
22320;SDS011;11328;53.928;18.522;2024-01-15T14:32:09;9.00;;;3.15;;
22320;SDS011;11328;53.928;18.522;2024-01-15T14:34:36;5.65;;;2.30;;
22320;SDS011;11328;53.928;18.522;2024-01-15T14:37:09;6.68;;;2.42;;
22320;SDS011;11328;53.928;18.522;2024-01-15T14:39:37;5.22;;;2.40;;
22320;SDS011;11328;53.928;18.522;2024-01-15T14:42:09;9.93;;;2.90;;
22320;SDS011;11328;53.928;18.522;2024-01-15T14:44:37;10.00;;;2.33;;
22320;SDS011;11328;53.928;18.522;2024-01-15T14:47:07;7.43;;;2.63;;
22320;SDS011;11328;53.928;18.522;2024-01-15T14:49:34;10.73;;;3.22;;
22320;SDS011;11328;53.928;18.522;2024-01-15T14:52:02;8.73;;;3.10;;
22320;SDS011;11328;53.928;18.522;2024-01-15T14:54:29;7.25;;;2.42;;
22320;SDS011;11328;53.928;18.522;2024-01-15T14:56:56;9.13;;;2.90;;